sensor_id;sensor_type;location;lat;lon;timestamp;P1;durP1;ratioP1;P2;durP2;ratioP2
44564;SDS011;30275;51.822;-0.326;2022-07-23T00:00:14;3.88;;;1.90;;
44564;SDS011;30275;51.822;-0.326;2022-07-23T00:02:40;2.72;;;1.92;;
44564;SDS011;30275;51.822;-0.326;2022-07-23T00:05:06;2.65;;;2.38;;
44564;SDS011;30275;51.822;-0.326;2022-07-23T00:07:36;3.17;;;1.98;;
44564;SDS011;30275;51.822;-0.326;2022-07-23T00:10:02;3.30;;;2.22;;
44564;SDS011;30275;51.822;-0.326;2022-07-23T00:12:29;3.85;;;1.90;;
44564;SDS011;30275;51.822;-0.326;2022-07-23T00:14:55;3.42;;;1.67;;
44564;SDS011;30275;51.822;-0.326;2022-07-23T00:17:20;2.10;;;1.70;;
44564;SDS011;30275;51.822;-0.326;2022-07-23T00:19:46;3.38;;;1.98;;
44564;SDS011;30275;51.822;-0.326;2022-07-23T00:22:12;4.15;;;1.90;;
44564;SDS011;30275;51.822;-0.326;2022-07-23T00:24:37;2.42;;;2.10;;
44564;SDS011;30275;51.822;-0.326;2022-07-23T00:27:03;4.53;;;2.00;;
44564;SDS011;30275;51.822;-0.326;2022-07-23T00:29:29;3.40;;;1.90;;
44564;SDS011;30275;51.822;-0.326;2022-07-23T00:31:54;3.28;;;1.95;;
44564;SDS011;30275;51.822;-0.326;2022-07-23T00:34:20;3.90;;;2.00;;
44564;SDS011;30275;51.822;-0.326;2022-07-23T00:36:46;2.35;;;1.98;;
44564;SDS011;30275;51.822;-0.326;2022-07-23T00:39:11;4.03;;;2.25;;
44564;SDS011;30275;51.822;-0.326;2022-07-23T00:41:37;4.35;;;2.20;;
44564;SDS011;30275;51.822;-0.326;2022-07-23T00:44:22;3.05;;;2.10;;
44564;SDS011;30275;51.822;-0.326;2022-07-23T00:46:52;3.53;;;1.85;;
44564;SDS011;30275;51.822;-0.326;2022-07-23T00:49:23;3.78;;;2.05;;
44564;SDS011;30275;51.822;-0.326;2022-07-23T00:51:50;3.50;;;1.90;;
44564;SDS011;30275;51.822;-0.326;2022-07-23T00:54:16;3.38;;;2.08;;
44564;SDS011;30275;51.822;-0.326;2022-07-23T00:56:43;4.05;;;2.00;;
44564;SDS011;30275;51.822;-0.326;2022-07-23T00:59:10;5.10;;;2.03;;
44564;SDS011;30275;51.822;-0.326;2022-07-23T01:01:36;4.47;;;2.58;;
44564;SDS011;30275;51.822;-0.326;2022-07-23T01:04:02;6.05;;;2.85;;
44564;SDS011;30275;51.822;-0.326;2022-07-23T01:06:28;4.05;;;2.15;;
44564;SDS011;30275;51.822;-0.326;2022-07-23T01:08:54;5.45;;;1.85;;
44564;SDS011;30275;51.822;-0.326;2022-07-23T01:11:20;3.95;;;2.08;;
44564;SDS011;30275;51.822;-0.326;2022-07-23T01:13:48;2.88;;;2.30;;
44564;SDS011;30275;51.822;-0.326;2022-07-23T01:16:14;3.75;;;1.92;;
44564;SDS011;30275;51.822;-0.326;2022-07-23T01:18:40;5.97;;;1.83;;
44564;SDS011;30275;51.822;-0.326;2022-07-23T01:21:05;3.15;;;2.00;;
44564;SDS011;30275;51.822;-0.326;2022-07-23T01:23:31;3.15;;;1.92;;
44564;SDS011;30275;51.822;-0.326;2022-07-23T01:25:57;3.20;;;2.00;;
44564;SDS011;30275;51.822;-0.326;2022-07-23T01:28:23;4.78;;;2.05;;
44564;SDS011;30275;51.822;-0.326;2022-07-23T01:30:48;2.72;;;2.00;;
44564;SDS011;30275;51.822;-0.326;2022-07-23T01:33:14;5.25;;;2.45;;
44564;SDS011;30275;51.822;-0.326;2022-07-23T01:35:40;4.15;;;2.45;;
44564;SDS011;30275;51.822;-0.326;2022-07-23T01:38:06;3.17;;;1.90;;
44564;SDS011;30275;51.822;-0.326;2022-07-23T01:40:31;2.05;;;1.85;;
44564;SDS011;30275;51.822;-0.326;2022-07-23T01:42:57;2.33;;;1.90;;
44564;SDS011;30275;51.822;-0.326;2022-07-23T01:45:23;2.67;;;1.83;;
44564;SDS011;30275;51.822;-0.326;2022-07-23T01:47:49;2.75;;;2.42;;
44564;SDS011;30275;51.822;-0.326;2022-07-23T01:50:15;4.13;;;1.95;;
44564;SDS011;30275;51.822;-0.326;2022-07-23T01:52:40;4.53;;;2.17;;
44564;SDS011;30275;51.822;-0.326;2022-07-23T01:55:07;3.67;;;1.90;;
44564;SDS011;30275;51.822;-0.326;2022-07-23T01:57:32;5.60;;;2.10;;
44564;SDS011;30275;51.822;-0.326;2022-07-23T02:00:01;4.38;;;2.58;;
44564;SDS011;30275;51.822;-0.326;2022-07-23T02:02:28;3.80;;;2.30;;
44564;SDS011;30275;51.822;-0.326;2022-07-23T02:04:53;4.95;;;2.47;;
44564;SDS011;30275;51.822;-0.326;2022-07-23T02:07:19;3.47;;;1.98;;
44564;SDS011;30275;51.822;-0.326;2022-07-23T02:09:45;4.75;;;2.10;;
44564;SDS011;30275;51.822;-0.326;2022-07-23T02:12:10;4.20;;;1.77;;
44564;SDS011;30275;51.822;-0.326;2022-07-23T02:14:36;3.88;;;2.13;;
44564;SDS011;30275;51.822;-0.326;2022-07-23T02:17:02;3.38;;;2.30;;
44564;SDS011;30275;51.822;-0.326;2022-07-23T02:22:27;3.75;;;2.00;;
44564;SDS011;30275;51.822;-0.326;2022-07-23T02:24:53;5.32;;;2.25;;
44564;SDS011;30275;51.822;-0.326;2022-07-23T02:27:19;3.75;;;1.98;;
44564;SDS011;30275;51.822;-0.326;2022-07-23T02:29:44;3.20;;;2.30;;
44564;SDS011;30275;51.822;-0.326;2022-07-23T02:32:10;3.72;;;2.20;;
44564;SDS011;30275;51.822;-0.326;2022-07-23T02:34:35;4.35;;;1.85;;
44564;SDS011;30275;51.822;-0.326;2022-07-23T02:37:01;4.82;;;3.50;;
44564;SDS011;30275;51.822;-0.326;2022-07-23T02:39:27;4.88;;;2.35;;
44564;SDS011;30275;51.822;-0.326;2022-07-23T02:41:53;4.38;;;2.30;;
44564;SDS011;30275;51.822;-0.326;2022-07-23T02:44:18;4.38;;;2.72;;
44564;SDS011;30275;51.822;-0.326;2022-07-23T02:46:44;4.80;;;2.50;;
44564;SDS011;30275;51.822;-0.326;2022-07-23T02:49:09;3.25;;;2.67;;
44564;SDS011;30275;51.822;-0.326;2022-07-23T02:51:35;4.75;;;2.78;;
44564;SDS011;30275;51.822;-0.326;2022-07-23T02:54:01;7.85;;;2.83;;
44564;SDS011;30275;51.822;-0.326;2022-07-23T02:56:26;4.95;;;2.95;;
44564;SDS011;30275;51.822;-0.326;2022-07-23T02:58:52;6.80;;;3.08;;
44564;SDS011;30275;51.822;-0.326;2022-07-23T03:01:18;7.85;;;3.30;;
44564;SDS011;30275;51.822;-0.326;2022-07-23T03:03:43;4.63;;;2.90;;
44564;SDS011;30275;51.822;-0.326;2022-07-23T03:06:09;4.40;;;3.10;;
44564;SDS011;30275;51.822;-0.326;2022-07-23T03:08:41;5.05;;;3.05;;
44564;SDS011;30275;51.822;-0.326;2022-07-23T03:12:07;5.45;;;3.70;;
44564;SDS011;30275;51.822;-0.326;2022-07-23T03:15:18;4.50;;;3.28;;
44564;SDS011;30275;51.822;-0.326;2022-07-23T03:17:44;5.65;;;3.08;;
44564;SDS011;30275;51.822;-0.326;2022-07-23T03:20:09;4.93;;;3.28;;
44564;SDS011;30275;51.822;-0.326;2022-07-23T03:22:35;5.03;;;3.50;;
44564;SDS011;30275;51.822;-0.326;2022-07-23T03:25:01;6.80;;;3.60;;
44564;SDS011;30275;51.822;-0.326;2022-07-23T03:27:27;5.45;;;3.40;;
44564;SDS011;30275;51.822;-0.326;2022-07-23T03:29:55;6.22;;;3.53;;
44564;SDS011;30275;51.822;-0.326;2022-07-23T03:32:22;8.80;;;4.85;;
44564;SDS011;30275;51.822;-0.326;2022-07-23T03:34:49;6.10;;;3.05;;
44564;SDS011;30275;51.822;-0.326;2022-07-23T03:37:15;5.55;;;3.42;;
44564;SDS011;30275;51.822;-0.326;2022-07-23T03:39:50;6.20;;;3.05;;
44564;SDS011;30275;51.822;-0.326;2022-07-23T03:42:16;5.70;;;3.10;;
44564;SDS011;30275;51.822;-0.326;2022-07-23T03:44:42;5.80;;;3.50;;
44564;SDS011;30275;51.822;-0.326;2022-07-23T03:47:07;6.53;;;3.63;;
44564;SDS011;30275;51.822;-0.326;2022-07-23T03:49:33;6.80;;;3.40;;
44564;SDS011;30275;51.822;-0.326;2022-07-23T03:51:59;6.05;;;3.22;;
44564;SDS011;30275;51.822;-0.326;2022-07-23T03:54:26;8.02;;;3.25;;
44564;SDS011;30275;51.822;-0.326;2022-07-23T03:56:51;7.82;;;4.55;;
44564;SDS011;30275;51.822;-0.326;2022-07-23T03:59:17;7.80;;;3.58;;
44564;SDS011;30275;51.822;-0.326;2022-07-23T04:01:43;4.50;;;3.20;;
44564;SDS011;30275;51.822;-0.326;2022-07-23T04:04:09;5.97;;;3.42;;
44564;SDS011;30275;51.822;-0.326;2022-07-23T04:06:35;7.45;;;3.55;;
44564;SDS011;30275;51.822;-0.326;2022-07-23T04:09:01;8.07;;;3.80;;
44564;SDS011;30275;51.822;-0.326;2022-07-23T04:11:27;6.68;;;3.42;;
44564;SDS011;30275;51.822;-0.326;2022-07-23T04:13:53;6.53;;;3.45;;
44564;SDS011;30275;51.822;-0.326;2022-07-23T04:16:18;8.80;;;4.32;;
44564;SDS011;30275;51.822;-0.326;2022-07-23T04:18:44;6.57;;;3.60;;
44564;SDS011;30275;51.822;-0.326;2022-07-23T04:21:10;8.65;;;4.22;;
44564;SDS011;30275;51.822;-0.326;2022-07-23T04:23:38;5.53;;;3.65;;
44564;SDS011;30275;51.822;-0.326;2022-07-23T04:26:04;4.90;;;3.55;;
44564;SDS011;30275;51.822;-0.326;2022-07-23T04:28:30;13.02;;;3.97;;
44564;SDS011;30275;51.822;-0.326;2022-07-23T04:30:56;5.72;;;3.63;;
44564;SDS011;30275;51.822;-0.326;2022-07-23T04:33:22;6.28;;;3.30;;
44564;SDS011;30275;51.822;-0.326;2022-07-23T04:35:48;7.68;;;3.45;;
44564;SDS011;30275;51.822;-0.326;2022-07-23T04:38:14;5.60;;;3.40;;
44564;SDS011;30275;51.822;-0.326;2022-07-23T04:40:39;6.40;;;3.45;;
44564;SDS011;30275;51.822;-0.326;2022-07-23T04:43:05;6.32;;;3.13;;
44564;SDS011;30275;51.822;-0.326;2022-07-23T04:45:31;5.18;;;3.28;;
44564;SDS011;30275;51.822;-0.326;2022-07-23T04:47:56;6.55;;;3.45;;
44564;SDS011;30275;51.822;-0.326;2022-07-23T04:50:22;7.47;;;2.60;;
44564;SDS011;30275;51.822;-0.326;2022-07-23T04:52:48;7.20;;;2.83;;
44564;SDS011;30275;51.822;-0.326;2022-07-23T04:55:14;6.80;;;3.35;;
44564;SDS011;30275;51.822;-0.326;2022-07-23T04:57:40;5.05;;;2.65;;
44564;SDS011;30275;51.822;-0.326;2022-07-23T05:00:06;4.88;;;2.88;;
44564;SDS011;30275;51.822;-0.326;2022-07-23T05:02:32;5.90;;;3.00;;
44564;SDS011;30275;51.822;-0.326;2022-07-23T05:04:58;6.03;;;2.97;;
44564;SDS011;30275;51.822;-0.326;2022-07-23T05:07:23;6.55;;;3.35;;
44564;SDS011;30275;51.822;-0.326;2022-07-23T05:09:49;3.85;;;2.95;;
44564;SDS011;30275;51.822;-0.326;2022-07-23T05:12:15;6.18;;;2.85;;
44564;SDS011;30275;51.822;-0.326;2022-07-23T05:14:41;6.20;;;3.00;;
44564;SDS011;30275;51.822;-0.326;2022-07-23T05:17:07;5.25;;;3.05;;
44564;SDS011;30275;51.822;-0.326;2022-07-23T05:19:33;5.28;;;3.10;;
44564;SDS011;30275;51.822;-0.326;2022-07-23T05:21:59;6.53;;;4.57;;
44564;SDS011;30275;51.822;-0.326;2022-07-23T05:24:25;4.05;;;2.90;;
44564;SDS011;30275;51.822;-0.326;2022-07-23T05:26:51;4.88;;;3.38;;
44564;SDS011;30275;51.822;-0.326;2022-07-23T05:29:16;5.22;;;3.67;;
44564;SDS011;30275;51.822;-0.326;2022-07-23T05:31:42;5.00;;;3.17;;
44564;SDS011;30275;51.822;-0.326;2022-07-23T05:34:08;5.25;;;3.13;;
44564;SDS011;30275;51.822;-0.326;2022-07-23T05:36:33;6.68;;;3.67;;
44564;SDS011;30275;51.822;-0.326;2022-07-23T05:38:59;8.05;;;3.72;;
44564;SDS011;30275;51.822;-0.326;2022-07-23T05:41:25;6.65;;;3.67;;
44564;SDS011;30275;51.822;-0.326;2022-07-23T05:43:50;6.30;;;3.72;;
44564;SDS011;30275;51.822;-0.326;2022-07-23T05:46:16;5.68;;;3.92;;
44564;SDS011;30275;51.822;-0.326;2022-07-23T05:48:42;6.13;;;3.45;;
44564;SDS011;30275;51.822;-0.326;2022-07-23T05:51:08;9.52;;;3.97;;
44564;SDS011;30275;51.822;-0.326;2022-07-23T05:53:34;8.93;;;2.97;;
44564;SDS011;30275;51.822;-0.326;2022-07-23T05:56:00;7.50;;;3.85;;
44564;SDS011;30275;51.822;-0.326;2022-07-23T05:58:26;22.73;;;5.10;;
44564;SDS011;30275;51.822;-0.326;2022-07-23T06:00:52;10.88;;;4.20;;
44564;SDS011;30275;51.822;-0.326;2022-07-23T06:03:17;5.30;;;3.60;;
44564;SDS011;30275;51.822;-0.326;2022-07-23T06:05:43;8.75;;;3.83;;
44564;SDS011;30275;51.822;-0.326;2022-07-23T06:08:09;7.53;;;4.25;;
44564;SDS011;30275;51.822;-0.326;2022-07-23T06:10:34;6.50;;;4.00;;
44564;SDS011;30275;51.822;-0.326;2022-07-23T06:13:00;10.05;;;4.47;;
44564;SDS011;30275;51.822;-0.326;2022-07-23T06:15:26;9.20;;;4.43;;
44564;SDS011;30275;51.822;-0.326;2022-07-23T06:17:51;9.35;;;4.60;;
44564;SDS011;30275;51.822;-0.326;2022-07-23T06:20:17;10.10;;;4.97;;
44564;SDS011;30275;51.822;-0.326;2022-07-23T06:22:42;10.18;;;4.80;;
44564;SDS011;30275;51.822;-0.326;2022-07-23T06:25:08;8.45;;;5.22;;
44564;SDS011;30275;51.822;-0.326;2022-07-23T06:27:37;8.52;;;5.57;;
44564;SDS011;30275;51.822;-0.326;2022-07-23T06:30:13;8.30;;;4.70;;
44564;SDS011;30275;51.822;-0.326;2022-07-23T06:32:41;7.65;;;4.47;;
44564;SDS011;30275;51.822;-0.326;2022-07-23T06:35:07;8.07;;;4.63;;
44564;SDS011;30275;51.822;-0.326;2022-07-23T06:37:32;7.35;;;4.57;;
44564;SDS011;30275;51.822;-0.326;2022-07-23T06:39:58;8.20;;;5.13;;
44564;SDS011;30275;51.822;-0.326;2022-07-23T06:42:24;8.20;;;4.90;;
44564;SDS011;30275;51.822;-0.326;2022-07-23T06:44:50;7.65;;;5.10;;
44564;SDS011;30275;51.822;-0.326;2022-07-23T06:47:15;8.63;;;4.90;;
44564;SDS011;30275;51.822;-0.326;2022-07-23T06:49:42;10.63;;;5.43;;
44564;SDS011;30275;51.822;-0.326;2022-07-23T06:52:08;7.93;;;5.03;;
44564;SDS011;30275;51.822;-0.326;2022-07-23T06:54:34;10.75;;;5.30;;
44564;SDS011;30275;51.822;-0.326;2022-07-23T06:57:00;12.18;;;5.65;;
44564;SDS011;30275;51.822;-0.326;2022-07-23T06:59:26;9.35;;;5.88;;
44564;SDS011;30275;51.822;-0.326;2022-07-23T07:01:52;8.60;;;5.43;;
44564;SDS011;30275;51.822;-0.326;2022-07-23T07:04:17;11.43;;;7.25;;
44564;SDS011;30275;51.822;-0.326;2022-07-23T07:06:43;10.50;;;6.00;;
44564;SDS011;30275;51.822;-0.326;2022-07-23T07:09:09;15.90;;;7.07;;
44564;SDS011;30275;51.822;-0.326;2022-07-23T07:11:34;13.20;;;7.72;;
44564;SDS011;30275;51.822;-0.326;2022-07-23T07:14:00;11.32;;;8.02;;
44564;SDS011;30275;51.822;-0.326;2022-07-23T07:16:26;13.77;;;7.68;;
44564;SDS011;30275;51.822;-0.326;2022-07-23T07:18:51;12.93;;;8.18;;
44564;SDS011;30275;51.822;-0.326;2022-07-23T07:21:17;11.65;;;7.90;;
44564;SDS011;30275;51.822;-0.326;2022-07-23T07:23:42;12.63;;;7.78;;
44564;SDS011;30275;51.822;-0.326;2022-07-23T07:26:08;15.95;;;9.32;;
44564;SDS011;30275;51.822;-0.326;2022-07-23T07:28:34;14.73;;;7.65;;
44564;SDS011;30275;51.822;-0.326;2022-07-23T07:31:00;14.32;;;8.15;;
44564;SDS011;30275;51.822;-0.326;2022-07-23T07:33:25;11.25;;;7.75;;
44564;SDS011;30275;51.822;-0.326;2022-07-23T07:35:51;13.48;;;7.95;;
44564;SDS011;30275;51.822;-0.326;2022-07-23T07:38:17;14.02;;;8.45;;
44564;SDS011;30275;51.822;-0.326;2022-07-23T07:40:42;13.40;;;8.32;;
44564;SDS011;30275;51.822;-0.326;2022-07-23T07:43:08;11.38;;;7.43;;
44564;SDS011;30275;51.822;-0.326;2022-07-23T07:45:34;16.00;;;8.60;;
44564;SDS011;30275;51.822;-0.326;2022-07-23T07:47:59;19.52;;;8.50;;
44564;SDS011;30275;51.822;-0.326;2022-07-23T07:50:25;25.02;;;8.25;;
44564;SDS011;30275;51.822;-0.326;2022-07-23T07:52:51;20.23;;;8.75;;
44564;SDS011;30275;51.822;-0.326;2022-07-23T07:55:17;11.85;;;8.00;;
44564;SDS011;30275;51.822;-0.326;2022-07-23T07:57:43;12.82;;;8.38;;
44564;SDS011;30275;51.822;-0.326;2022-07-23T08:00:12;11.65;;;8.07;;
44564;SDS011;30275;51.822;-0.326;2022-07-23T08:02:45;11.05;;;7.60;;
44564;SDS011;30275;51.822;-0.326;2022-07-23T08:05:12;11.25;;;7.97;;
44564;SDS011;30275;51.822;-0.326;2022-07-23T08:07:39;13.80;;;7.10;;
44564;SDS011;30275;51.822;-0.326;2022-07-23T08:10:06;10.70;;;7.38;;
44564;SDS011;30275;51.822;-0.326;2022-07-23T08:13:05;10.30;;;7.03;;
44564;SDS011;30275;51.822;-0.326;2022-07-23T08:15:27;10.20;;;6.88;;
44564;SDS011;30275;51.822;-0.326;2022-07-23T08:17:54;11.13;;;7.00;;
44564;SDS011;30275;51.822;-0.326;2022-07-23T08:20:21;11.07;;;7.68;;
44564;SDS011;30275;51.822;-0.326;2022-07-23T08:23:02;10.95;;;8.05;;
44564;SDS011;30275;51.822;-0.326;2022-07-23T08:25:36;13.23;;;7.53;;
44564;SDS011;30275;51.822;-0.326;2022-07-23T08:28:05;14.18;;;6.85;;
44564;SDS011;30275;51.822;-0.326;2022-07-23T08:30:35;11.18;;;6.47;;
44564;SDS011;30275;51.822;-0.326;2022-07-23T08:33:06;11.45;;;7.47;;
44564;SDS011;30275;51.822;-0.326;2022-07-23T08:35:37;10.95;;;7.80;;
44564;SDS011;30275;51.822;-0.326;2022-07-23T08:40:36;11.60;;;6.32;;
44564;SDS011;30275;51.822;-0.326;2022-07-23T08:43:04;12.10;;;7.28;;
44564;SDS011;30275;51.822;-0.326;2022-07-23T08:45:35;10.20;;;6.15;;
44564;SDS011;30275;51.822;-0.326;2022-07-23T08:48:05;10.27;;;6.32;;
44564;SDS011;30275;51.822;-0.326;2022-07-23T08:50:34;9.65;;;6.00;;
44564;SDS011;30275;51.822;-0.326;2022-07-23T08:53:06;10.02;;;7.18;;
44564;SDS011;30275;51.822;-0.326;2022-07-23T08:55:32;13.77;;;6.28;;
44564;SDS011;30275;51.822;-0.326;2022-07-23T08:58:01;14.15;;;7.07;;
44564;SDS011;30275;51.822;-0.326;2022-07-23T09:00:27;14.65;;;6.85;;
44564;SDS011;30275;51.822;-0.326;2022-07-23T09:02:54;10.00;;;5.90;;
44564;SDS011;30275;51.822;-0.326;2022-07-23T09:05:20;11.57;;;6.05;;
44564;SDS011;30275;51.822;-0.326;2022-07-23T09:10:51;12.38;;;5.45;;
44564;SDS011;30275;51.822;-0.326;2022-07-23T09:13:23;7.55;;;5.43;;
44564;SDS011;30275;51.822;-0.326;2022-07-23T09:15:50;7.78;;;5.43;;
44564;SDS011;30275;51.822;-0.326;2022-07-23T09:18:16;8.20;;;5.10;;
44564;SDS011;30275;51.822;-0.326;2022-07-23T09:20:45;8.00;;;5.72;;
44564;SDS011;30275;51.822;-0.326;2022-07-23T09:23:11;7.18;;;4.50;;
44564;SDS011;30275;51.822;-0.326;2022-07-23T09:25:36;7.88;;;4.93;;
44564;SDS011;30275;51.822;-0.326;2022-07-23T09:28:02;6.75;;;4.60;;
44564;SDS011;30275;51.822;-0.326;2022-07-23T09:30:31;9.10;;;4.95;;
44564;SDS011;30275;51.822;-0.326;2022-07-23T09:33:12;8.85;;;4.63;;
44564;SDS011;30275;51.822;-0.326;2022-07-23T09:35:55;11.18;;;5.10;;
44564;SDS011;30275;51.822;-0.326;2022-07-23T09:38:24;11.40;;;4.90;;
44564;SDS011;30275;51.822;-0.326;2022-07-23T09:41:09;8.38;;;4.57;;
44564;SDS011;30275;51.822;-0.326;2022-07-23T09:43:35;6.18;;;4.18;;
44564;SDS011;30275;51.822;-0.326;2022-07-23T09:46:20;6.55;;;4.28;;
44564;SDS011;30275;51.822;-0.326;2022-07-23T09:48:51;7.25;;;4.38;;
44564;SDS011;30275;51.822;-0.326;2022-07-23T09:51:18;7.88;;;3.70;;
44564;SDS011;30275;51.822;-0.326;2022-07-23T09:53:54;7.72;;;3.63;;
44564;SDS011;30275;51.822;-0.326;2022-07-23T09:56:20;6.07;;;3.83;;
44564;SDS011;30275;51.822;-0.326;2022-07-23T09:58:45;8.95;;;3.92;;
44564;SDS011;30275;51.822;-0.326;2022-07-23T10:01:15;4.50;;;3.10;;
44564;SDS011;30275;51.822;-0.326;2022-07-23T10:03:42;6.63;;;3.67;;
44564;SDS011;30275;51.822;-0.326;2022-07-23T10:06:08;6.30;;;3.03;;
44564;SDS011;30275;51.822;-0.326;2022-07-23T10:08:35;5.20;;;3.30;;
44564;SDS011;30275;51.822;-0.326;2022-07-23T10:11:03;5.22;;;3.10;;
44564;SDS011;30275;51.822;-0.326;2022-07-23T10:13:30;9.40;;;3.45;;
44564;SDS011;30275;51.822;-0.326;2022-07-23T10:16:14;7.95;;;2.85;;
44564;SDS011;30275;51.822;-0.326;2022-07-23T10:18:41;9.20;;;3.55;;
44564;SDS011;30275;51.822;-0.326;2022-07-23T10:21:12;3.83;;;2.78;;
44564;SDS011;30275;51.822;-0.326;2022-07-23T10:33:27;3.30;;;2.60;;
44564;SDS011;30275;51.822;-0.326;2022-07-23T10:36:37;6.13;;;2.65;;
44564;SDS011;30275;51.822;-0.326;2022-07-23T10:41:51;13.93;;;3.88;;
44564;SDS011;30275;51.822;-0.326;2022-07-23T10:44:18;42.65;;;6.78;;
44564;SDS011;30275;51.822;-0.326;2022-07-23T10:46:54;17.90;;;5.53;;
44564;SDS011;30275;51.822;-0.326;2022-07-23T10:49:34;9.77;;;3.97;;
44564;SDS011;30275;51.822;-0.326;2022-07-23T10:52:16;9.30;;;3.53;;
44564;SDS011;30275;51.822;-0.326;2022-07-23T10:54:43;8.32;;;3.30;;
44564;SDS011;30275;51.822;-0.326;2022-07-23T10:57:14;2.67;;;2.45;;
44564;SDS011;30275;51.822;-0.326;2022-07-23T11:02:26;22.00;;;7.13;;
44564;SDS011;30275;51.822;-0.326;2022-07-23T11:04:58;7.03;;;3.88;;
44564;SDS011;30275;51.822;-0.326;2022-07-23T11:07:25;4.18;;;2.65;;
44564;SDS011;30275;51.822;-0.326;2022-07-23T11:09:52;6.22;;;2.90;;
44564;SDS011;30275;51.822;-0.326;2022-07-23T11:17:22;9.65;;;2.85;;
44564;SDS011;30275;51.822;-0.326;2022-07-23T11:22:37;4.38;;;3.13;;
44564;SDS011;30275;51.822;-0.326;2022-07-23T11:25:03;2.65;;;2.45;;
44564;SDS011;30275;51.822;-0.326;2022-07-23T11:27:37;4.68;;;2.70;;
44564;SDS011;30275;51.822;-0.326;2022-07-23T11:30:03;2.35;;;2.15;;
44564;SDS011;30275;51.822;-0.326;2022-07-23T11:32:30;3.72;;;2.50;;
44564;SDS011;30275;51.822;-0.326;2022-07-23T11:34:59;4.28;;;2.90;;
44564;SDS011;30275;51.822;-0.326;2022-07-23T11:37:38;3.75;;;2.13;;
44564;SDS011;30275;51.822;-0.326;2022-07-23T11:40:09;4.53;;;2.50;;
44564;SDS011;30275;51.822;-0.326;2022-07-23T11:42:37;6.32;;;2.63;;
44564;SDS011;30275;51.822;-0.326;2022-07-23T11:45:07;2.72;;;1.92;;
44564;SDS011;30275;51.822;-0.326;2022-07-23T11:47:34;2.78;;;2.17;;
44564;SDS011;30275;51.822;-0.326;2022-07-23T11:50:01;4.60;;;2.08;;
44564;SDS011;30275;51.822;-0.326;2022-07-23T11:52:29;2.65;;;1.98;;
44564;SDS011;30275;51.822;-0.326;2022-07-23T11:54:57;3.20;;;2.33;;
44564;SDS011;30275;51.822;-0.326;2022-07-23T11:57:29;3.38;;;2.00;;
44564;SDS011;30275;51.822;-0.326;2022-07-23T12:00:13;4.57;;;2.53;;
44564;SDS011;30275;51.822;-0.326;2022-07-23T12:02:44;3.70;;;2.25;;
44564;SDS011;30275;51.822;-0.326;2022-07-23T12:05:29;3.40;;;2.10;;
44564;SDS011;30275;51.822;-0.326;2022-07-23T12:07:56;3.00;;;1.90;;
44564;SDS011;30275;51.822;-0.326;2022-07-23T12:10:24;3.95;;;1.98;;
44564;SDS011;30275;51.822;-0.326;2022-07-23T12:13:01;4.55;;;2.25;;
44564;SDS011;30275;51.822;-0.326;2022-07-23T12:15:30;3.45;;;2.22;;
44564;SDS011;30275;51.822;-0.326;2022-07-23T12:17:58;3.83;;;2.30;;
44564;SDS011;30275;51.822;-0.326;2022-07-23T12:20:28;2.97;;;1.95;;
44564;SDS011;30275;51.822;-0.326;2022-07-23T12:23:00;4.18;;;2.20;;
44564;SDS011;30275;51.822;-0.326;2022-07-23T12:25:30;2.20;;;2.00;;
44564;SDS011;30275;51.822;-0.326;2022-07-23T12:27:58;3.50;;;2.33;;
44564;SDS011;30275;51.822;-0.326;2022-07-23T12:30:24;2.88;;;1.67;;
44564;SDS011;30275;51.822;-0.326;2022-07-23T12:32:52;2.25;;;1.92;;
44564;SDS011;30275;51.822;-0.326;2022-07-23T12:35:20;5.38;;;2.13;;
44564;SDS011;30275;51.822;-0.326;2022-07-23T12:37:47;3.22;;;2.22;;
44564;SDS011;30275;51.822;-0.326;2022-07-23T12:40:30;2.25;;;2.00;;
44564;SDS011;30275;51.822;-0.326;2022-07-23T12:43:05;3.13;;;2.08;;
44564;SDS011;30275;51.822;-0.326;2022-07-23T12:48:32;2.72;;;2.20;;
44564;SDS011;30275;51.822;-0.326;2022-07-23T12:51:06;2.33;;;1.90;;
44564;SDS011;30275;51.822;-0.326;2022-07-23T12:53:42;3.28;;;1.88;;
44564;SDS011;30275;51.822;-0.326;2022-07-23T12:56:17;2.60;;;1.98;;
44564;SDS011;30275;51.822;-0.326;2022-07-23T13:01:22;2.60;;;1.63;;
44564;SDS011;30275;51.822;-0.326;2022-07-23T13:03:57;2.50;;;1.80;;
44564;SDS011;30275;51.822;-0.326;2022-07-23T13:06:34;2.80;;;1.70;;
44564;SDS011;30275;51.822;-0.326;2022-07-23T13:09:02;1.83;;;1.70;;
44564;SDS011;30275;51.822;-0.326;2022-07-23T13:11:29;1.98;;;1.77;;
44564;SDS011;30275;51.822;-0.326;2022-07-23T13:13:55;2.15;;;1.90;;
44564;SDS011;30275;51.822;-0.326;2022-07-23T13:16:21;2.42;;;1.60;;
44564;SDS011;30275;51.822;-0.326;2022-07-23T13:18:47;3.67;;;1.90;;
44564;SDS011;30275;51.822;-0.326;2022-07-23T13:21:13;1.92;;;1.70;;
44564;SDS011;30275;51.822;-0.326;2022-07-23T13:23:39;1.75;;;1.50;;
44564;SDS011;30275;51.822;-0.326;2022-07-23T13:26:04;3.15;;;1.85;;
44564;SDS011;30275;51.822;-0.326;2022-07-23T13:28:30;3.08;;;1.60;;
44564;SDS011;30275;51.822;-0.326;2022-07-23T13:30:56;2.05;;;1.70;;
44564;SDS011;30275;51.822;-0.326;2022-07-23T13:33:22;1.73;;;1.45;;
44564;SDS011;30275;51.822;-0.326;2022-07-23T13:35:50;1.67;;;1.50;;
44564;SDS011;30275;51.822;-0.326;2022-07-23T13:38:17;3.03;;;1.65;;
44564;SDS011;30275;51.822;-0.326;2022-07-23T13:40:45;3.90;;;1.75;;
44564;SDS011;30275;51.822;-0.326;2022-07-23T13:43:12;1.80;;;1.70;;
44564;SDS011;30275;51.822;-0.326;2022-07-23T13:45:40;2.78;;;1.55;;
44564;SDS011;30275;51.822;-0.326;2022-07-23T13:48:09;2.28;;;1.80;;
44564;SDS011;30275;51.822;-0.326;2022-07-23T13:50:37;2.65;;;1.70;;
44564;SDS011;30275;51.822;-0.326;2022-07-23T13:53:04;2.40;;;2.08;;
44564;SDS011;30275;51.822;-0.326;2022-07-23T13:55:31;1.77;;;1.45;;
44564;SDS011;30275;51.822;-0.326;2022-07-23T13:57:59;1.88;;;1.60;;
44564;SDS011;30275;51.822;-0.326;2022-07-23T14:00:25;1.75;;;1.63;;
44564;SDS011;30275;51.822;-0.326;2022-07-23T14:02:52;3.60;;;1.98;;
44564;SDS011;30275;51.822;-0.326;2022-07-23T14:05:18;3.88;;;1.80;;
44564;SDS011;30275;51.822;-0.326;2022-07-23T14:07:44;3.45;;;1.70;;
44564;SDS011;30275;51.822;-0.326;2022-07-23T14:10:11;2.05;;;1.60;;
44564;SDS011;30275;51.822;-0.326;2022-07-23T14:12:38;1.95;;;1.70;;
44564;SDS011;30275;51.822;-0.326;2022-07-23T14:15:05;3.58;;;2.00;;
44564;SDS011;30275;51.822;-0.326;2022-07-23T14:17:31;1.90;;;1.70;;
44564;SDS011;30275;51.822;-0.326;2022-07-23T14:19:58;2.10;;;1.90;;
44564;SDS011;30275;51.822;-0.326;2022-07-23T14:22:24;2.60;;;1.75;;
44564;SDS011;30275;51.822;-0.326;2022-07-23T14:24:50;2.78;;;1.70;;
44564;SDS011;30275;51.822;-0.326;2022-07-23T14:27:16;2.00;;;1.75;;
44564;SDS011;30275;51.822;-0.326;2022-07-23T14:29:42;2.50;;;1.92;;
44564;SDS011;30275;51.822;-0.326;2022-07-23T14:32:08;3.17;;;1.70;;
44564;SDS011;30275;51.822;-0.326;2022-07-23T14:34:37;3.00;;;1.90;;
44564;SDS011;30275;51.822;-0.326;2022-07-23T14:37:03;2.25;;;1.90;;
44564;SDS011;30275;51.822;-0.326;2022-07-23T14:39:29;2.30;;;1.80;;
44564;SDS011;30275;51.822;-0.326;2022-07-23T14:41:54;2.40;;;1.92;;
44564;SDS011;30275;51.822;-0.326;2022-07-23T14:44:20;2.58;;;1.80;;
44564;SDS011;30275;51.822;-0.326;2022-07-23T14:46:46;1.85;;;1.65;;
44564;SDS011;30275;51.822;-0.326;2022-07-23T14:49:11;2.40;;;1.80;;
44564;SDS011;30275;51.822;-0.326;2022-07-23T14:51:37;2.35;;;1.85;;
44564;SDS011;30275;51.822;-0.326;2022-07-23T14:54:03;3.95;;;1.80;;
44564;SDS011;30275;51.822;-0.326;2022-07-23T14:56:29;3.53;;;1.60;;
44564;SDS011;30275;51.822;-0.326;2022-07-23T14:58:55;1.25;;;1.15;;
44564;SDS011;30275;51.822;-0.326;2022-07-23T15:01:21;2.33;;;1.63;;
44564;SDS011;30275;51.822;-0.326;2022-07-23T15:03:48;2.28;;;1.60;;
44564;SDS011;30275;51.822;-0.326;2022-07-23T15:06:15;1.60;;;1.40;;
44564;SDS011;30275;51.822;-0.326;2022-07-23T15:08:42;2.85;;;1.50;;
44564;SDS011;30275;51.822;-0.326;2022-07-23T15:11:07;1.40;;;1.30;;
44564;SDS011;30275;51.822;-0.326;2022-07-23T15:13:34;1.33;;;1.23;;